Time;durP1;ratioP1;P1;durP2;ratioP2;P2;SDS_P1;SDS_P2;PMS_P1;PMS_P2;Temp;Humidity;BMP_temperature;BMP_pressure;BME280_temperature;BME280_humidity;BME280_pressure;Samples;Min_cycle;Max_cycle;Signal;HPM_P1;HPM_P2
2023/03/14 00:01:52;;;;;;;63.20;10.23;;;15.90;90.70;;;;;;5045727;28;20033;-60
2023/03/14 00:04:18;;;;;;;77.85;10.55;;;15.90;90.70;;;;;;5045341;28;20561;-60
2023/03/14 00:06:43;;;;;;;51.58;9.65;;;15.90;90.80;;;;;;5045233;28;20041;-59
2023/03/14 00:09:09;;;;;;;73.72;10.93;;;15.80;90.80;;;;;;5045096;28;20458;-60
2023/03/14 00:11:35;;;;;;;46.58;8.57;;;15.80;90.80;;;;;;5045062;28;20033;-59
2023/03/14 00:14:02;;;;;;;61.10;9.75;;;15.80;90.90;;;;;;5045750;28;20025;-60
2023/03/14 00:16:28;;;;;;;54.22;9.52;;;15.80;90.90;;;;;;5045284;28;20049;-60
2023/03/14 00:18:53;;;;;;;61.30;8.32;;;15.80;90.90;;;;;;5045025;28;20481;-60
2023/03/14 00:21:19;;;;;;;57.75;7.80;;;15.70;90.80;;;;;;5043596;28;20033;-60
2023/03/14 00:23:45;;;;;;;48.47;9.10;;;15.80;90.90;;;;;;5045063;28;20463;-60
2023/03/14 00:26:12;;;;;;;70.50;9.60;;;15.70;90.80;;;;;;5044959;28;20036;-59
2023/03/14 00:28:38;;;;;;;44.90;7.68;;;15.80;90.80;;;;;;5044991;28;20037;-59
2023/03/14 00:31:07;;;;;;;55.03;8.35;;;15.70;90.80;;;;;;5045164;28;20076;-59
2023/03/14 00:33:33;;;;;;;45.60;8.20;;;15.60;90.80;;;;;;5045597;28;20072;-59
2023/03/14 00:36:00;;;;;;;48.05;7.57;;;15.60;90.90;;;;;;5045678;28;20025;-60
2023/03/14 00:38:26;;;;;;;37.58;7.32;;;15.60;90.90;;;;;;5045089;28;20041;-59
2023/03/14 00:40:52;;;;;;;52.88;7.43;;;15.50;90.80;;;;;;5044797;28;20040;-59
2023/03/14 00:43:18;;;;;;;44.90;7.18;;;15.50;90.80;;;;;;5044907;28;20045;-59
2023/03/14 00:45:44;;;;;;;38.83;6.40;;;15.50;90.80;;;;;;5043345;28;20037;-59
2023/03/14 00:48:09;;;;;;;42.45;6.95;;;15.50;90.90;;;;;;5044599;28;20052;-60
2023/03/14 00:50:35;;;;;;;34.38;6.10;;;15.40;90.90;;;;;;5044504;28;20038;-59
2023/03/14 00:53:00;;;;;;;39.15;6.20;;;15.40;91.00;;;;;;5044573;28;20041;-59
2023/03/14 00:55:26;;;;;;;29.77;6.20;;;15.40;90.90;;;;;;5044576;28;20093;-60
2023/03/14 00:57:52;;;;;;;38.63;6.00;;;15.30;90.80;;;;;;5044700;28;20034;-59
2023/03/14 01:00:17;;;;;;;32.05;5.88;;;15.30;90.80;;;;;;5044603;28;20097;-59
2023/03/14 01:02:43;;;;;;;39.75;5.65;;;15.30;90.90;;;;;;5043214;28;20034;-59
2023/03/14 01:05:10;;;;;;;35.67;6.05;;;15.30;90.90;;;;;;5044696;28;20063;-59
2023/03/14 01:07:36;;;;;;;43.50;6.13;;;15.20;90.90;;;;;;5044501;28;20056;-59
2023/03/14 01:10:02;;;;;;;25.27;5.43;;;15.20;90.90;;;;;;5044265;28;20049;-59
2023/03/14 01:12:28;;;;;;;21.35;4.35;;;15.20;90.90;;;;;;5044552;28;20030;-59
2023/03/14 01:14:53;;;;;;;23.90;5.05;;;15.10;90.80;;;;;;5044425;28;20381;-59
2023/03/14 01:17:19;;;;;;;25.42;5.20;;;15.10;90.90;;;;;;5043079;28;20033;-59
2023/03/14 01:19:44;;;;;;;22.42;4.10;;;15.10;90.90;;;;;;5044490;28;20026;-60
2023/03/14 01:22:10;;;;;;;21.48;4.38;;;15.10;90.90;;;;;;5044455;28;20030;-59
2023/03/14 01:24:37;;;;;;;28.85;4.78;;;15.00;90.90;;;;;;5044291;28;20029;-59
2023/03/14 01:27:02;;;;;;;30.70;5.25;;;15.00;90.90;;;;;;5044389;28;20025;-59
2023/03/14 01:29:28;;;;;;;17.70;4.20;;;15.00;91.00;;;;;;5043034;28;20454;-59
2023/03/14 01:31:53;;;;;;;22.55;5.03;;;15.00;91.00;;;;;;5044317;28;20045;-59
2023/03/14 01:34:19;;;;;;;28.33;4.35;;;15.00;90.90;;;;;;5044256;28;20030;-59
2023/03/14 01:36:44;;;;;;;21.90;4.20;;;15.00;90.80;;;;;;5044294;28;20358;-59
2023/03/14 01:39:10;;;;;;;18.20;3.90;;;15.00;90.80;;;;;;5044113;28;20120;-59
2023/03/14 01:41:36;;;;;;;15.27;3.25;;;14.90;90.80;;;;;;5044266;28;20033;-59
2023/03/14 01:44:01;;;;;;;17.33;3.78;;;14.80;90.80;;;;;;5044193;28;20029;-59
2023/03/14 01:46:43;;;;;;;23.92;3.47;;;15.00;90.90;;;;;;5042710;28;20042;-59
2023/03/14 01:49:29;;;;;;;20.92;3.97;;;14.80;90.80;;;;;;5043944;28;20093;-59
2023/03/14 01:52:04;;;;;;;18.75;3.40;;;14.80;90.80;;;;;;5028872;28;20160;-58
2023/03/14 01:54:47;;;;;;;17.48;3.25;;;14.70;90.80;;;;;;5044268;28;20033;-60
2023/03/14 01:57:31;;;;;;;16.15;3.42;;;14.70;90.90;;;;;;5044656;28;20094;-59
2023/03/14 02:00:12;;;;;;;15.60;3.17;;;14.70;90.90;;;;;;5047645;28;20040;-59
2023/03/14 02:02:38;;;;;;;13.05;3.08;;;14.60;90.90;;;;;;5046489;28;20025;-59
2023/03/14 02:05:03;;;;;;;14.18;3.08;;;14.60;90.90;;;;;;5013086;28;20480;-59
2023/03/14 02:07:41;;;;;;;25.83;3.83;;;14.60;91.00;;;;;;5047396;28;20049;-59
2023/03/14 02:10:07;;;;;;;11.23;3.13;;;14.60;91.30;;;;;;5030644;28;20021;-59
2023/03/14 02:12:34;;;;;;;18.67;3.10;;;14.60;91.00;;;;;;5046172;28;20025;-59
2023/03/14 02:14:59;;;;;;;14.60;2.92;;;14.50;90.90;;;;;;5046026;28;20056;-59
2023/03/14 02:17:25;;;;;;;15.90;2.90;;;14.50;91.00;;;;;;5047426;28;20029;-59
2023/03/14 02:19:59;;;;;;;16.05;3.05;;;14.50;91.00;;;;;;5045648;28;20017;-59
2023/03/14 02:22:25;;;;;;;24.13;3.20;;;14.50;90.90;;;;;;5047145;28;20033;-59
2023/03/14 02:25:27;;;;;;;17.15;3.53;;;14.40;90.90;;;;;;5045678;28;20032;-59
2023/03/14 02:27:53;;;;;;;17.58;2.80;;;14.40;91.00;;;;;;5047054;28;20029;-59
2023/03/14 02:30:27;;;;;;;16.85;2.20;;;14.50;91.00;;;;;;5045723;28;20389;-59
2023/03/14 02:33:17;;;;;;;11.75;2.42;;;14.50;90.90;;;;;;5047102;28;20022;-59
2023/03/14 02:35:52;;;;;;;10.40;2.58;;;14.40;90.70;;;;;;5041193;28;20041;-59
2023/03/14 02:38:26;;;;;;;15.13;2.80;;;14.40;90.70;;;;;;5046853;28;20021;-59
2023/03/14 02:40:51;;;;;;;13.23;2.50;;;14.40;90.70;;;;;;5045501;28;20082;-59
2023/03/14 02:43:17;;;;;;;13.32;3.55;;;14.30;90.70;;;;;;5046685;28;20025;-59
2023/03/14 02:45:47;;;;;;;12.88;4.20;;;14.30;90.80;;;;;;5046677;28;20032;-58
2023/03/14 02:48:35;;;;;;;12.00;4.07;;;14.30;90.70;;;;;;5046760;28;20045;-58
2023/03/14 02:51:01;;;;;;;10.50;3.25;;;14.30;91.00;;;;;;5046866;28;20029;-59
2023/03/14 02:53:32;;;;;;;12.80;3.42;;;14.20;90.70;;;;;;5046628;28;20079;-59
2023/03/14 02:55:57;;;;;;;14.40;3.67;;;14.20;90.70;;;;;;5046653;28;20085;-59
2023/03/14 02:58:23;;;;;;;11.77;2.92;;;14.20;90.70;;;;;;5046629;28;20040;-58
2023/03/14 03:00:48;;;;;;;11.38;2.90;;;14.20;90.80;;;;;;5046335;28;20120;-58
2023/03/14 03:03:14;;;;;;;14.60;2.10;;;14.30;90.90;;;;;;5046234;28;20063;-58
2023/03/14 03:05:40;;;;;;;6.68;2.53;;;14.10;90.80;;;;;;5046241;28;20029;-59
2023/03/14 03:08:05;;;;;;;10.55;2.67;;;14.10;90.80;;;;;;5045012;28;20087;-59
2023/03/14 03:10:31;;;;;;;7.95;2.90;;;14.00;90.80;;;;;;5044747;28;20033;-59
2023/03/14 03:12:56;;;;;;;11.63;2.67;;;14.00;90.80;;;;;;5046257;28;20132;-59
2023/03/14 03:15:22;;;;;;;7.65;2.25;;;14.00;90.90;;;;;;5046128;28;20382;-58
2023/03/14 03:17:48;;;;;;;9.68;2.47;;;14.00;91.20;;;;;;5046194;28;20060;-59
2023/03/14 03:20:13;;;;;;;11.55;2.63;;;14.00;90.90;;;;;;5045975;28;20029;-58
2023/03/14 03:22:39;;;;;;;11.27;3.38;;;14.00;91.00;;;;;;5045931;28;20039;-58
2023/03/14 03:25:05;;;;;;;9.32;3.05;;;14.00;90.90;;;;;;5044336;28;20075;-58
2023/03/14 03:27:31;;;;;;;13.35;3.30;;;14.00;91.00;;;;;;5045759;28;20029;-58
2023/03/14 03:29:57;;;;;;;9.48;2.70;;;13.90;90.90;;;;;;5045608;28;20093;-58
2023/03/14 03:32:23;;;;;;;8.88;2.55;;;14.10;91.00;;;;;;5045871;28;20454;-58
2023/03/14 03:34:48;;;;;;;7.15;2.78;;;13.90;91.00;;;;;;5045751;28;20021;-58
2023/03/14 03:37:14;;;;;;;7.97;3.00;;;13.90;91.30;;;;;;5045864;28;20103;-58
2023/03/14 03:39:40;;;;;;;9.95;2.15;;;14.00;91.10;;;;;;5044103;28;20034;-58
2023/03/14 03:42:05;;;;;;;11.35;2.97;;;13.90;91.10;;;;;;5045668;28;20032;-58
2023/03/14 03:44:31;;;;;;;9.73;2.60;;;13.90;91.10;;;;;;5045335;28;20064;-58
2023/03/14 03:46:56;;;;;;;5.72;2.45;;;13.90;91.10;;;;;;5045659;28;20040;-58
2023/03/14 03:49:22;;;;;;;7.15;2.50;;;13.90;91.10;;;;;;5045353;28;20044;-59
2023/03/14 03:51:47;;;;;;;6.75;2.33;;;13.80;91.00;;;;;;5045447;28;20037;-58
2023/03/14 03:54:13;;;;;;;6.35;2.08;;;13.90;91.10;;;;;;5045351;28;20022;-58
2023/03/14 03:56:38;;;;;;;7.93;2.05;;;13.90;91.20;;;;;;5045356;28;20375;-58
2023/03/14 03:59:04;;;;;;;6.50;2.38;;;13.80;91.20;;;;;;5045217;28;20025;-58
2023/03/14 04:01:29;;;;;;;7.10;2.50;;;13.80;91.20;;;;;;5045426;28;20037;-58
2023/03/14 04:03:55;;;;;;;6.18;2.13;;;13.80;91.20;;;;;;5045356;28;20033;-59
2023/03/14 04:06:20;;;;;;;5.47;2.28;;;13.80;91.20;;;;;;5045283;28;20029;-58
2023/03/14 04:08:46;;;;;;;7.63;2.72;;;13.70;91.20;;;;;;5045240;28;20104;-58
2023/03/14 04:11:12;;;;;;;6.22;2.30;;;13.70;91.20;;;;;;5045016;28;20025;-58
2023/03/14 04:13:37;;;;;;;7.97;2.00;;;13.70;91.30;;;;;;5045190;28;20026;-58
2023/03/14 04:16:03;;;;;;;6.60;1.90;;;13.70;91.50;;;;;;5045126;28;20032;-58
2023/03/14 04:18:30;;;;;;;7.43;2.35;;;13.70;91.20;;;;;;5045021;28;20021;-58
2023/03/14 04:20:56;;;;;;;5.88;1.73;;;13.90;91.40;;;;;;5044760;28;20037;-58
2023/03/14 04:23:24;;;;;;;6.22;2.10;;;13.80;91.30;;;;;;5045033;28;20030;-58
2023/03/14 04:25:53;;;;;;;6.30;2.08;;;13.70;91.50;;;;;;5044901;28;20025;-58
2023/03/14 04:28:18;;;;;;;7.38;3.03;;;13.70;91.10;;;;;;5044893;28;20431;-58
2023/03/14 04:30:44;;;;;;;9.68;2.55;;;13.80;91.10;;;;;;5044754;28;20034;-59
2023/03/14 04:33:10;;;;;;;18.20;4.00;;;13.80;91.10;;;;;;5044793;28;20036;-58
2023/03/14 04:35:36;;;;;;;28.92;4.15;;;13.80;91.10;;;;;;5044592;28;20461;-58
2023/03/14 04:38:02;;;;;;;19.05;3.75;;;13.70;91.10;;;;;;5044696;28;20026;-58
2023/03/14 04:40:28;;;;;;;17.10;3.58;;;13.60;91.10;;;;;;5044579;28;20029;-58
2023/03/14 04:42:53;;;;;;;20.33;3.92;;;13.80;91.20;;;;;;5044682;28;20143;-57
2023/03/14 04:45:19;;;;;;;33.20;4.45;;;13.60;91.20;;;;;;5044652;28;20038;-58
2023/03/14 04:47:44;;;;;;;34.58;4.40;;;13.60;91.20;;;;;;5044567;28;20358;-58
2023/03/14 04:50:10;;;;;;;19.33;3.97;;;13.60;91.20;;;;;;5044117;28;20088;-59
2023/03/14 04:52:36;;;;;;;20.05;4.75;;;13.60;91.20;;;;;;5044513;28;20052;-58
2023/03/14 04:55:01;;;;;;;25.35;4.10;;;13.60;91.20;;;;;;5044548;28;20013;-58
2023/03/14 04:57:27;;;;;;;19.02;3.67;;;13.50;91.20;;;;;;5044577;28;20087;-58
2023/03/14 04:59:53;;;;;;;27.80;4.25;;;13.60;91.20;;;;;;5044544;28;20026;-58
2023/03/14 05:02:18;;;;;;;29.55;4.13;;;13.50;91.20;;;;;;5044608;28;20473;-58
2023/03/14 05:04:44;;;;;;;21.88;4.88;;;13.70;91.30;;;;;;5044372;28;20036;-58
2023/03/14 05:07:09;;;;;;;12.82;3.45;;;13.50;91.20;;;;;;5044640;28;20029;-58
2023/03/14 05:09:35;;;;;;;29.13;4.20;;;13.60;91.20;;;;;;5044371;28;20116;-58
2023/03/14 05:12:00;;;;;;;26.90;4.25;;;13.60;91.20;;;;;;5044445;28;20022;-59
2023/03/14 05:14:26;;;;;;;39.10;6.25;;;13.60;91.10;;;;;;5044282;28;20025;-58
2023/03/14 05:16:51;;;;;;;30.52;5.32;;;13.50;91.10;;;;;;5044401;28;20083;-58
2023/03/14 05:19:17;;;;;;;39.05;4.63;;;13.50;91.20;;;;;;5042838;28;20033;-58
2023/03/14 05:21:42;;;;;;;36.33;4.50;;;13.60;91.20;;;;;;5044405;28;20084;-58
2023/03/14 05:24:08;;;;;;;25.42;3.72;;;13.50;91.10;;;;;;5044408;28;20033;-58
2023/03/14 05:26:33;;;;;;;23.58;3.88;;;13.50;91.00;;;;;;5044361;28;20086;-58
2023/03/14 05:28:59;;;;;;;18.80;3.60;;;13.40;90.90;;;;;;5044197;28;20366;-58
2023/03/14 05:31:25;;;;;;;24.25;3.60;;;13.40;90.90;;;;;;5044887;28;20085;-58
2023/03/14 05:33:50;;;;;;;21.52;3.50;;;13.40;90.80;;;;;;5047945;28;20025;-58
2023/03/14 05:36:16;;;;;;;23.70;3.88;;;13.40;90.80;;;;;;5047957;28;20051;-58
2023/03/14 05:38:41;;;;;;;19.63;4.03;;;13.40;90.80;;;;;;5046606;28;20040;-58
2023/03/14 05:41:07;;;;;;;25.00;4.00;;;13.40;90.80;;;;;;5047767;28;20033;-58
2023/03/14 05:43:32;;;;;;;15.98;3.17;;;13.40;90.90;;;;;;5047703;28;20073;-58
2023/03/14 05:45:58;;;;;;;19.70;3.85;;;13.30;90.90;;;;;;5047807;28;20029;-58
2023/03/14 05:48:23;;;;;;;17.40;3.92;;;13.30;91.30;;;;;;5047675;28;20052;-58
2023/03/14 05:50:57;;;;;;;15.98;3.30;;;13.30;91.10;;;;;;5046106;28;20033;-58
2023/03/14 05:53:23;;;;;;;17.67;4.18;;;13.20;91.10;;;;;;5047961;28;20032;-58
2023/03/14 05:55:54;;;;;;;20.10;3.72;;;13.30;91.10;;;;;;5047609;28;20021;-58
2023/03/14 05:58:19;;;;;;;10.68;2.72;;;13.20;91.20;;;;;;5046353;28;20030;-58
2023/03/14 06:00:45;;;;;;;12.43;2.90;;;13.20;91.40;;;;;;5045883;28;20354;-58
2023/03/14 06:03:10;;;;;;;17.95;3.92;;;13.30;91.50;;;;;;5047572;28;20025;-58
2023/03/14 06:05:36;;;;;;;17.20;3.25;;;13.20;91.40;;;;;;5047430;28;20057;-58
2023/03/14 06:08:02;;;;;;;14.73;3.40;;;13.30;91.40;;;;;;5047382;28;20026;-58
2023/03/14 06:10:27;;;;;;;12.40;3.40;;;13.10;91.40;;;;;;5047210;28;20112;-58
2023/03/14 06:12:53;;;;;;;12.80;2.83;;;13.10;91.30;;;;;;5047303;28;20108;-58
2023/03/14 06:15:19;;;;;;;14.27;2.90;;;13.20;91.30;;;;;;5047092;28;20124;-58
2023/03/14 06:17:44;;;;;;;18.85;3.45;;;13.20;91.20;;;;;;5047236;28;20029;-59
2023/03/14 06:20:10;;;;;;;15.02;2.70;;;13.10;91.20;;;;;;5046943;28;20025;-58
2023/03/14 06:22:36;;;;;;;23.33;3.38;;;13.10;91.20;;;;;;5045774;28;20025;-58
2023/03/14 06:25:03;;;;;;;17.20;3.58;;;13.20;91.20;;;;;;5047076;28;20415;-58
2023/03/14 06:27:29;;;;;;;14.52;2.65;;;13.10;91.20;;;;;;5047050;28;20055;-58
2023/03/14 06:29:54;;;;;;;16.65;2.50;;;13.10;91.20;;;;;;5046965;28;20069;-58
2023/03/14 06:32:20;;;;;;;13.57;3.00;;;13.10;91.20;;;;;;5046991;28;20049;-58
2023/03/14 06:34:46;;;;;;;15.95;2.55;;;13.10;91.30;;;;;;5046901;28;20048;-58
2023/03/14 06:37:11;;;;;;;15.00;3.30;;;13.10;91.20;;;;;;5047006;28;20033;-58
2023/03/14 06:39:38;;;;;;;10.88;2.85;;;13.10;91.30;;;;;;5046807;28;20033;-58
2023/03/14 06:42:04;;;;;;;7.65;2.60;;;13.20;91.30;;;;;;5046595;28;20028;-58
2023/03/14 06:44:30;;;;;;;10.35;2.22;;;13.10;91.20;;;;;;5046867;28;20037;-58
2023/03/14 06:46:55;;;;;;;9.68;2.65;;;13.00;91.20;;;;;;5046806;28;20331;-58
2023/03/14 06:49:21;;;;;;;7.18;2.13;;;13.10;91.20;;;;;;5046484;28;20351;-58
2023/03/14 06:51:46;;;;;;;11.45;2.45;;;13.20;91.20;;;;;;5046577;28;20036;-58
2023/03/14 06:54:12;;;;;;;9.48;2.15;;;13.00;91.20;;;;;;5046489;28;20029;-58
2023/03/14 06:56:38;;;;;;;11.57;2.20;;;13.10;91.20;;;;;;5046606;28;20041;-58
2023/03/14 06:59:03;;;;;;;9.20;2.60;;;13.00;91.10;;;;;;5046559;28;20034;-58
2023/03/14 07:01:29;;;;;;;10.02;2.40;;;13.10;91.10;;;;;;5046527;28;20030;-58
2023/03/14 07:03:55;;;;;;;15.23;2.47;;;12.90;91.00;;;;;;5046443;28;20033;-58
2023/03/14 07:06:20;;;;;;;8.75;2.50;;;13.00;90.90;;;;;;5046322;28;20029;-57
2023/03/14 07:08:46;;;;;;;7.22;2.00;;;13.00;91.20;;;;;;5044952;28;20030;-58
2023/03/14 07:11:12;;;;;;;6.07;2.05;;;13.00;91.10;;;;;;5046024;28;20040;-58
2023/03/14 07:13:40;;;;;;;9.02;1.80;;;13.00;90.70;;;;;;5045514;28;20041;-58
2023/03/14 07:16:06;;;;;;;7.80;1.90;;;12.90;90.60;;;;;;5041709;28;20032;-57
2023/03/14 07:18:32;;;;;;;8.57;2.08;;;12.90;90.50;;;;;;5044547;28;20029;-58
2023/03/14 07:20:57;;;;;;;7.32;1.85;;;12.90;90.50;;;;;;5046246;28;20067;-58
2023/03/14 07:23:23;;;;;;;4.82;1.58;;;13.00;90.50;;;;;;5040857;28;20072;-58
2023/03/14 07:25:50;;;;;;;9.20;2.20;;;12.80;90.40;;;;;;5043538;28;20084;-58
2023/03/14 07:28:16;;;;;;;10.73;1.67;;;13.00;90.50;;;;;;5042648;28;20362;-58
2023/03/14 07:30:41;;;;;;;2.50;1.40;;;12.90;90.40;;;;;;5043731;28;20033;-58
2023/03/14 07:33:07;;;;;;;8.15;1.48;;;12.80;90.40;;;;;;5043221;28;20025;-58
2023/03/14 07:35:32;;;;;;;4.50;1.17;;;12.90;90.40;;;;;;5034591;28;20478;-58
2023/03/14 07:37:58;;;;;;;6.32;1.40;;;12.90;90.40;;;;;;5043630;28;20096;-58
2023/03/14 07:40:23;;;;;;;3.72;1.58;;;12.80;90.30;;;;;;5044374;28;20032;-58
2023/03/14 07:42:49;;;;;;;9.23;1.67;;;12.80;90.30;;;;;;5044248;28;20064;-58
2023/03/14 07:45:15;;;;;;;7.55;1.48;;;12.90;90.30;;;;;;5045483;28;20033;-58
2023/03/14 07:47:41;;;;;;;5.63;1.55;;;12.90;90.30;;;;;;5044230;28;20163;-58
2023/03/14 07:50:07;;;;;;;2.85;1.30;;;12.80;90.30;;;;;;5044010;28;20026;-58
2023/03/14 07:52:32;;;;;;;5.28;1.27;;;12.80;90.30;;;;;;5044152;28;20059;-58
2023/03/14 07:54:58;;;;;;;4.80;0.90;;;13.00;90.30;;;;;;5049039;28;20418;-58
2023/03/14 07:57:24;;;;;;;4.10;1.17;;;12.90;90.30;;;;;;5044286;28;20030;-57
2023/03/14 07:59:50;;;;;;;5.03;1.05;;;12.80;90.20;;;;;;5041066;28;20021;-57
2023/03/14 08:02:15;;;;;;;4.18;1.08;;;12.90;90.20;;;;;;5040254;28;20079;-57
2023/03/14 08:04:41;;;;;;;4.57;1.33;;;13.00;90.20;;;;;;5041966;28;20029;-58
2023/03/14 08:07:06;;;;;;;11.27;1.50;;;12.90;90.10;;;;;;5045168;28;20045;-58
2023/03/14 08:09:32;;;;;;;7.65;1.73;;;13.00;90.10;;;;;;5040024;28;20041;-58
2023/03/14 08:11:57;;;;;;;17.98;2.30;;;13.00;90.10;;;;;;5025254;28;20041;-58
2023/03/14 08:14:26;;;;;;;5.70;1.45;;;12.90;90.00;;;;;;5025348;28;20029;-58
2023/03/14 08:16:52;;;;;;;5.75;1.15;;;12.90;90.00;;;;;;5025318;28;20022;-57
2023/03/14 08:19:17;;;;;;;7.97;1.52;;;12.90;89.90;;;;;;5038424;28;20043;-58
2023/03/14 08:21:43;;;;;;;10.77;1.80;;;12.90;89.80;;;;;;5045056;28;20033;-58
2023/03/14 08:24:08;;;;;;;11.95;1.80;;;13.00;89.80;;;;;;5044861;28;20501;-58
2023/03/14 08:26:34;;;;;;;11.45;2.20;;;13.00;89.90;;;;;;5043308;28;20478;-58
2023/03/14 08:28:59;;;;;;;12.23;1.80;;;12.90;89.80;;;;;;5064277;28;20059;-58
2023/03/14 08:31:25;;;;;;;5.93;1.40;;;13.00;89.80;;;;;;5065228;28;20025;-57
2023/03/14 08:33:51;;;;;;;10.52;1.65;;;13.00;89.70;;;;;;5055236;28;20421;-58
2023/03/14 08:36:17;;;;;;;13.90;1.33;;;13.00;89.50;;;;;;5049121;28;20025;-58
2023/03/14 08:38:43;;;;;;;10.57;1.60;;;13.10;89.50;;;;;;5051873;28;20032;-58
2023/03/14 08:41:09;;;;;;;11.52;1.65;;;13.10;89.60;;;;;;5061203;28;20081;-57
2023/03/14 08:43:35;;;;;;;9.55;1.85;;;13.00;89.50;;;;;;5063786;28;20033;-58
2023/03/14 08:46:00;;;;;;;15.25;2.22;;;13.00;89.40;;;;;;5063513;28;20039;-58
2023/03/14 08:48:26;;;;;;;7.05;1.65;;;13.10;89.40;;;;;;5062548;28;20164;-58
2023/03/14 08:50:52;;;;;;;16.65;1.77;;;13.10;89.40;;;;;;5064183;28;20084;-58
2023/03/14 08:53:18;;;;;;;17.95;2.15;;;13.10;89.90;;;;;;5064276;28;20542;-58
2023/03/14 08:55:43;;;;;;;17.75;2.15;;;13.00;89.20;;;;;;5064308;28;20029;-57
2023/03/14 08:58:09;;;;;;;11.55;1.77;;;13.20;89.20;;;;;;5063136;28;20107;-57
2023/03/14 09:00:35;;;;;;;11.90;1.58;;;13.10;89.10;;;;;;5063613;28;20033;-57
2023/03/14 09:03:00;;;;;;;20.30;2.10;;;13.10;89.00;;;;;;5064485;28;20108;-58
2023/03/14 09:05:26;;;;;;;10.15;1.80;;;13.10;89.00;;;;;;5065331;28;20032;-57
2023/03/14 09:07:51;;;;;;;17.33;1.70;;;13.10;88.90;;;;;;5068401;28;20092;-57
2023/03/14 09:10:17;;;;;;;24.17;2.78;;;13.10;88.80;;;;;;5068050;28;20032;-57
2023/03/14 09:12:42;;;;;;;17.60;2.45;;;13.10;89.00;;;;;;5067040;28;20025;-57
2023/03/14 09:15:08;;;;;;;29.55;3.05;;;13.10;89.10;;;;;;5066839;28;20339;-58
2023/03/14 09:17:34;;;;;;;24.55;3.10;;;13.10;89.00;;;;;;5065650;28;20057;-57
2023/03/14 09:19:59;;;;;;;16.25;2.28;;;13.30;89.00;;;;;;5063684;28;20032;-58
2023/03/14 09:22:25;;;;;;;15.57;2.42;;;13.30;89.10;;;;;;5045656;28;20061;-57
2023/03/14 09:24:51;;;;;;;16.75;2.05;;;13.30;88.90;;;;;;5068033;28;20032;-57
2023/03/14 09:27:17;;;;;;;22.33;2.40;;;13.30;88.80;;;;;;5065780;28;20120;-58
2023/03/14 09:29:42;;;;;;;14.32;1.75;;;13.20;88.80;;;;;;5048997;28;20021;-58
2023/03/14 09:32:08;;;;;;;15.65;2.42;;;13.30;88.80;;;;;;5047646;28;20037;-58
2023/03/14 09:34:34;;;;;;;17.27;2.40;;;13.20;88.70;;;;;;5038127;28;20026;-57
2023/03/14 09:37:00;;;;;;;23.55;3.00;;;13.30;88.80;;;;;;5028082;28;20034;-58
2023/03/14 09:39:25;;;;;;;28.85;2.38;;;13.20;88.90;;;;;;5028516;28;20022;-57
2023/03/14 09:41:51;;;;;;;25.52;2.75;;;13.40;88.90;;;;;;5028164;28;20117;-56
2023/03/14 09:44:31;;;;;;;30.17;3.55;;;13.40;88.90;;;;;;5046649;28;20093;-56
2023/03/14 09:46:59;;;;;;;32.83;3.60;;;13.30;88.90;;;;;;5055580;28;20058;-58
2023/03/14 09:49:28;;;;;;;17.58;2.90;;;13.40;88.80;;;;;;5044069;28;20174;-58
2023/03/14 09:51:55;;;;;;;17.00;3.05;;;13.30;88.60;;;;;;5035699;28;20037;-57
2023/03/14 09:54:50;;;;;;;15.00;2.13;;;13.30;88.50;;;;;;5041571;28;20046;-57
2023/03/14 09:57:18;;;;;;;24.42;2.72;;;13.40;88.50;;;;;;5041699;28;20037;-58
2023/03/14 09:59:44;;;;;;;25.17;3.40;;;13.50;88.50;;;;;;5052716;28;20501;-57
2023/03/14 10:02:18;;;;;;;24.98;3.10;;;13.40;89.20;;;;;;5045901;28;20179;-57
2023/03/14 10:04:45;;;;;;;22.63;2.65;;;13.50;88.60;;;;;;5057956;28;20055;-58
2023/03/14 10:07:21;;;;;;;14.02;2.80;;;13.50;88.50;;;;;;5052902;28;20044;-57
2023/03/14 10:09:48;;;;;;;21.58;2.78;;;13.40;88.40;;;;;;5063445;28;20025;-57
2023/03/14 10:12:14;;;;;;;27.38;2.97;;;13.70;88.50;;;;;;5040863;28;20032;-57
2023/03/14 10:14:49;;;;;;;21.75;2.63;;;13.50;88.30;;;;;;5047709;28;20105;-57
2023/03/14 10:17:16;;;;;;;22.02;3.00;;;13.50;88.20;;;;;;5048597;28;20026;-58
2023/03/14 10:19:55;;;;;;;48.05;4.38;;;13.50;88.20;;;;;;5049468;28;20025;-58
2023/03/14 10:22:22;;;;;;;26.35;3.10;;;13.50;88.20;;;;;;5043758;28;20033;-57
2023/03/14 10:25:01;;;;;;;20.17;2.90;;;13.50;88.30;;;;;;5045548;28;20106;-57
2023/03/14 10:27:34;;;;;;;44.53;4.10;;;13.70;88.40;;;;;;5038569;28;20140;-58
2023/03/14 10:30:05;;;;;;;41.65;3.70;;;13.60;88.40;;;;;;5061426;28;20077;-58
2023/03/14 10:32:35;;;;;;;29.10;4.15;;;13.60;88.60;;;;;;5058498;28;20056;-58
2023/03/14 10:35:08;;;;;;;22.88;3.42;;;13.60;88.50;;;;;;5064952;28;20025;-58
2023/03/14 10:37:34;;;;;;;20.50;3.38;;;13.70;88.50;;;;;;5049999;28;20037;-58
2023/03/14 10:40:05;;;;;;;36.53;4.05;;;13.60;88.50;;;;;;5044245;28;20025;-57
2023/03/14 10:42:33;;;;;;;43.33;6.07;;;13.70;88.50;;;;;;5045370;28;20083;-57
2023/03/14 10:45:01;;;;;;;53.03;5.07;;;13.70;88.50;;;;;;5044103;28;20390;-57
2023/03/14 10:47:30;;;;;;;45.22;4.80;;;13.70;88.50;;;;;;5046131;28;20033;-58
2023/03/14 10:49:56;;;;;;;35.88;4.72;;;13.80;88.60;;;;;;5045910;28;20029;-58
2023/03/14 10:52:32;;;;;;;31.55;3.65;;;13.80;88.70;;;;;;5046291;28;20385;-58
2023/03/14 10:55:03;;;;;;;43.70;5.57;;;13.70;88.60;;;;;;5041885;28;20028;-58
2023/03/14 10:57:28;;;;;;;37.35;3.65;;;13.70;88.70;;;;;;5046260;28;20025;-58
2023/03/14 10:59:56;;;;;;;32.10;3.70;;;13.70;88.90;;;;;;5046435;28;20124;-58
2023/03/14 11:02:28;;;;;;;25.52;3.22;;;13.60;88.90;;;;;;5046372;28;20442;-58
2023/03/14 11:05:19;;;;;;;33.15;4.40;;;13.60;89.00;;;;;;5062244;28;20036;-58
2023/03/14 11:07:45;;;;;;;38.40;5.18;;;13.60;89.10;;;;;;5043505;28;20041;-58
2023/03/14 11:10:26;;;;;;;65.10;7.65;;;13.60;89.50;;;;;;5040751;28;20037;-58
2023/03/14 11:13:02;;;;;;;43.72;4.70;;;13.60;89.80;;;;;;5027411;28;20060;-57
2023/03/14 11:15:38;;;;;;;35.13;5.10;;;13.60;90.00;;;;;;5056795;28;20052;-58
2023/03/14 11:18:19;;;;;;;36.08;4.47;;;13.60;90.00;;;;;;5037437;28;20026;-58
2023/03/14 11:20:47;;;;;;;47.88;5.40;;;13.60;90.10;;;;;;5049354;28;20033;-59
2023/03/14 11:23:39;;;;;;;40.25;4.25;;;13.50;90.20;;;;;;5035655;28;20037;-58
2023/03/14 11:26:18;;;;;;;48.55;5.47;;;13.50;90.40;;;;;;5040804;28;20464;-58
2023/03/14 11:28:48;;;;;;;68.80;7.25;;;13.50;90.50;;;;;;5043246;28;20095;-58
2023/03/14 11:31:31;;;;;;;63.17;7.60;;;13.60;90.60;;;;;;5048705;28;20060;-58
2023/03/14 11:34:06;;;;;;;155.80;17.10;;;13.50;90.50;;;;;;5033000;28;20055;-58
2023/03/14 11:36:37;;;;;;;60.58;7.82;;;13.50;90.50;;;;;;5039367;28;20063;-58
2023/03/14 11:39:03;;;;;;;46.22;5.40;;;13.60;90.60;;;;;;5041554;28;20087;-59
2023/03/14 11:41:35;;;;;;;69.88;7.10;;;13.50;90.50;;;;;;5035974;28;20025;-58
2023/03/14 11:44:03;;;;;;;72.40;8.50;;;13.50;90.60;;;;;;5057186;28;20051;-58
2023/03/14 11:46:41;;;;;;;71.88;8.73;;;13.50;90.70;;;;;;5034224;28;20030;-58
2023/03/14 11:49:11;;;;;;;86.45;9.77;;;13.60;90.60;;;;;;5038139;28;20505;-58
2023/03/14 11:51:46;;;;;;;126.47;11.57;;;13.40;90.70;;;;;;5080293;28;20124;-58
2023/03/14 11:54:14;;;;;;;117.50;10.25;;;13.40;90.80;;;;;;5057047;28;20041;-58
2023/03/14 11:57:07;;;;;;;189.77;19.83;;;13.40;90.90;;;;;;5058195;28;20068;-58
2023/03/14 11:59:39;;;;;;;83.15;9.38;;;13.40;91.00;;;;;;5066457;28;20049;-58
2023/03/14 12:02:26;;;;;;;100.55;10.15;;;13.40;90.90;;;;;;5049242;28;20544;-58
2023/03/14 12:05:15;;;;;;;113.85;13.98;;;13.40;90.90;;;;;;5072560;28;20029;-58
2023/03/14 12:08:07;;;;;;;125.45;12.75;;;13.40;91.00;;;;;;5052497;28;20032;-55
2023/03/14 12:10:51;;;;;;;116.35;11.20;;;13.30;90.90;;;;;;5084914;28;20041;-58
2023/03/14 12:13:17;;;;;;;122.95;14.18;;;13.30;91.10;;;;;;5072633;28;20021;-59
2023/03/14 12:15:58;;;;;;;132.10;14.02;;;13.30;91.40;;;;;;5055903;28;20057;-58
2023/03/14 12:18:31;;;;;;;190.18;19.40;;;13.40;91.50;;;;;;5071966;28;20029;-58
2023/03/14 12:21:01;;;;;;;204.35;19.60;;;13.40;91.50;;;;;;5087632;28;20660;-58
2023/03/14 12:23:27;;;;;;;144.82;15.52;;;13.40;91.50;;;;;;5038688;28;20052;-58
2023/03/14 12:26:16;;;;;;;153.63;16.98;;;13.40;91.40;;;;;;5075689;28;20029;-58
2023/03/14 12:28:52;;;;;;;423.65;42.20;;;13.40;91.20;;;;;;5029647;28;20101;-58
2023/03/14 12:31:30;;;;;;;120.88;11.45;;;13.40;91.20;;;;;;5050753;28;20037;-58
2023/03/14 12:34:03;;;;;;;62.90;6.78;;;13.40;90.90;;;;;;5059345;28;20099;-58
2023/03/14 12:36:56;;;;;;;57.00;6.88;;;13.30;90.50;;;;;;5058968;28;20401;-58
2023/03/14 12:39:59;;;;;;;46.53;6.15;;;13.30;90.40;;;;;;5053342;28;20607;-58
2023/03/14 12:42:58;;;;;;;57.47;6.00;;;13.30;90.30;;;;;;5072282;28;20303;-58
2023/03/14 12:45:24;;;;;;;65.05;6.00;;;13.20;90.20;;;;;;5054723;28;20186;-58